Time;durP1;ratioP1;P1;durP2;ratioP2;P2;SDS_P1;SDS_P2;PMS_P1;PMS_P2;Temp;Humidity;BMP_temperature;BMP_pressure;BME280_temperature;BME280_humidity;BME280_pressure;Samples;Min_cycle;Max_cycle;Signal;HPM_P1;HPM_P2
2022/05/15 00:01:27;;;;;;;14.77;4.75;;;;;;;18.29;49.15;100848.56;4140564;28;20053;-62
2022/05/15 00:03:30;;;;;;;7.90;3.78;;;;;;;18.30;49.50;100838.94;4159894;28;20069;-62
2022/05/15 00:05:34;;;;;;;12.00;3.45;;;;;;;18.30;49.95;100844.19;4158521;28;20065;-62
2022/05/15 00:07:39;;;;;;;9.63;3.20;;;;;;;18.26;50.50;100847.75;4150134;28;20088;-62
2022/05/15 00:09:42;;;;;;;10.32;3.55;;;;;;;18.25;50.57;100843.34;4161622;28;20121;-62
2022/05/15 00:11:45;;;;;;;9.93;3.40;;;;;;;18.24;50.69;100839.00;4153937;28;20553;-62
2022/05/15 00:13:51;;;;;;;6.30;3.30;;;;;;;18.22;51.58;100843.41;4160568;28;20124;-63
2022/05/15 00:15:55;;;;;;;8.57;3.55;;;;;;;18.18;51.15;100839.03;4160587;28;20129;-63
2022/05/15 00:17:57;;;;;;;6.05;3.30;;;;;;;18.17;51.33;100832.91;4159178;28;20038;-63
2022/05/15 00:20:00;;;;;;;8.38;3.65;;;;;;;18.14;51.17;100833.81;4162206;28;20083;-63
2022/05/15 00:22:07;;;;;;;6.93;3.50;;;;;;;18.10;51.68;100834.75;4136030;28;20559;-63
2022/05/15 00:24:09;;;;;;;9.45;3.80;;;;;;;18.06;51.47;100833.06;4163373;28;20152;-62
2022/05/15 00:26:13;;;;;;;8.25;3.72;;;;;;;18.03;51.62;100842.72;4164611;28;20049;-62
2022/05/15 00:28:16;;;;;;;8.00;3.15;;;;;;;18.03;51.01;100840.09;4151213;28;20057;-62
2022/05/15 00:30:21;;;;;;;7.10;3.00;;;;;;;18.06;51.45;100833.06;4163407;28;20487;-62
2022/05/15 00:32:23;;;;;;;7.10;2.92;;;;;;;18.01;52.48;100834.84;4163315;28;20033;-63
2022/05/15 00:34:28;;;;;;;10.27;3.70;;;;;;;17.91;52.31;100836.69;4156728;28;20048;-63
2022/05/15 00:36:30;;;;;;;11.15;3.75;;;;;;;17.92;53.27;100845.47;4165511;28;20068;-62
2022/05/15 00:38:35;;;;;;;6.50;3.20;;;;;;;17.99;53.79;100843.63;4165436;28;20137;-63
2022/05/15 00:40:40;;;;;;;5.93;2.92;;;;;;;17.92;54.12;100841.06;4164833;28;20049;-63
2022/05/15 00:42:43;;;;;;;6.63;3.30;;;;;;;17.87;53.72;100827.09;4166460;28;20499;-63
2022/05/15 00:44:47;;;;;;;7.20;3.45;;;;;;;17.79;53.84;100835.03;4166543;28;20050;-63
2022/05/15 00:46:49;;;;;;;6.88;3.40;;;;;;;17.87;53.97;100841.97;4166437;28;20047;-63
2022/05/15 00:48:53;;;;;;;9.80;3.53;;;;;;;17.89;53.70;100830.56;4164512;28;20041;-62
2022/05/15 00:50:57;;;;;;;6.95;3.50;;;;;;;17.77;53.44;100831.56;4154300;28;20554;-62
2022/05/15 00:53:06;;;;;;;8.57;3.63;;;;;;;17.67;53.54;100829.00;4166020;28;20120;-62
2022/05/15 00:55:14;;;;;;;7.65;3.42;;;;;;;17.62;52.74;100827.31;4166249;28;20404;-62
2022/05/15 00:57:21;;;;;;;6.90;3.05;;;;;;;17.60;52.90;100829.06;4148556;28;20063;-62
2022/05/15 00:59:28;;;;;;;8.20;3.72;;;;;;;17.59;53.69;100826.44;4163835;28;20493;-63
2022/05/15 01:01:31;;;;;;;5.60;3.45;;;;;;;17.53;53.74;100829.13;4162561;28;20030;-62
2022/05/15 01:03:34;;;;;;;8.45;3.90;;;;;;;17.47;53.41;100832.69;4164153;28;20045;-63
2022/05/15 01:05:41;;;;;;;7.97;3.55;;;;;;;17.48;53.25;100823.03;4155317;28;20662;-62
2022/05/15 01:07:44;;;;;;;7.55;3.30;;;;;;;17.49;52.55;100822.16;4139579;28;20506;-63
2022/05/15 01:09:50;;;;;;;8.50;3.63;;;;;;;17.51;52.14;100825.63;4156382;28;20144;-62
2022/05/15 01:11:54;;;;;;;;;;;;;;;17.31;52.13;100823.19;4160544;28;20057;-62
2022/05/15 01:13:57;;;;;;;9.38;3.47;;;;;;;17.42;52.07;100824.84;4163617;28;19921;-62
2022/05/15 01:16:01;;;;;;;6.22;3.40;;;;;;;17.49;52.23;100830.06;4163028;28;20112;-62
2022/05/15 01:18:06;;;;;;;6.90;2.70;;;;;;;17.48;52.48;100828.28;4143857;28;20088;-62
2022/05/15 01:20:13;;;;;;;5.60;2.87;;;;;;;17.50;53.29;100832.66;4158815;28;20038;-62
2022/05/15 01:22:18;;;;;;;11.65;3.92;;;;;;;17.48;51.66;100823.94;4163317;28;20060;-62
2022/05/15 01:24:21;;;;;;;7.80;3.15;;;;;;;17.47;53.01;100821.31;4149540;28;20585;-62
2022/05/15 01:26:26;;;;;;;8.20;3.43;;;;;;;17.47;53.29;100826.56;4159516;28;20030;-62
2022/05/15 01:28:28;;;;;;;9.13;3.22;;;;;;;17.44;54.03;100825.69;4163573;28;20033;-62
2022/05/15 01:30:33;;;;;;;6.40;2.95;;;;;;;17.45;54.62;100834.47;4157478;28;20040;-62
2022/05/15 01:32:35;;;;;;;9.40;3.05;;;;;;;17.41;53.79;100828.34;4158437;28;20442;-62
2022/05/15 01:34:39;;;;;;;7.13;3.15;;;;;;;17.41;50.96;100828.34;4157460;28;20033;-62
2022/05/15 01:36:42;;;;;;;11.35;3.95;;;;;;;17.42;50.61;100830.09;4163433;28;20507;-62
2022/05/15 01:38:46;;;;;;;8.63;3.28;;;;;;;17.47;49.88;100827.44;4163460;28;20045;-62
2022/05/15 01:40:51;;;;;;;7.70;3.13;;;;;;;17.45;50.70;100830.06;4162880;28;20030;-62
2022/05/15 01:42:56;;;;;;;4.97;2.97;;;;;;;17.40;52.51;100823.97;4177622;28;20041;-62
2022/05/15 01:44:59;;;;;;;5.47;3.28;;;;;;;17.37;53.50;100824.00;4161785;28;20490;-62
2022/05/15 01:47:04;;;;;;;7.47;3.28;;;;;;;17.27;54.20;100827.59;4164309;28;20102;-62
2022/05/15 01:49:09;;;;;;;5.60;3.47;;;;;;;17.21;54.04;100832.88;4162760;28;20064;-62
2022/05/15 01:51:13;;;;;;;7.93;3.60;;;;;;;17.16;53.29;100835.56;4162825;28;20044;-62
2022/05/15 01:53:16;;;;;;;6.20;3.10;;;;;;;17.09;53.31;100832.09;4157375;28;20065;-62
2022/05/15 01:55:22;;;;;;;6.82;3.13;;;;;;;17.06;52.89;100839.13;4156636;28;20128;-62
2022/05/15 01:57:24;;;;;;;;;;;;;;;16.82;53.20;100837.47;4155363;28;20078;-63
2022/05/15 01:59:27;;;;;;;7.07;3.60;;;;;;;16.89;52.73;100839.22;4157270;28;19921;-62
2022/05/15 02:01:30;;;;;;;10.30;3.15;;;;;;;16.88;52.40;100837.47;4145161;28;20045;-62
2022/05/15 02:03:35;;;;;;;10.55;3.92;;;;;;;16.86;52.46;100833.97;4162065;28;20041;-63
2022/05/15 02:05:38;;;;;;;8.30;3.50;;;;;;;16.83;52.74;100839.22;4162054;28;20045;-62
2022/05/15 02:07:41;;;;;;;10.25;3.63;;;;;;;16.80;53.13;100828.75;4162981;28;20040;-62
2022/05/15 02:09:45;;;;;;;7.07;3.50;;;;;;;16.71;52.80;100833.16;4163475;28;20041;-62
2022/05/15 02:11:49;;;;;;;7.15;3.47;;;;;;;16.71;52.26;100830.53;4162171;28;20120;-62
2022/05/15 02:13:52;;;;;;;8.23;3.65;;;;;;;16.65;52.24;100825.31;4163611;28;20052;-62
2022/05/15 02:15:56;;;;;;;12.60;4.10;;;;;;;16.64;52.62;100817.44;4161542;28;20646;-63
2022/05/15 02:17:59;;;;;;;14.50;4.35;;;;;;;16.62;53.12;100814.84;4162706;28;20029;-62
2022/05/15 02:20:03;;;;;;;11.13;4.00;;;;;;;16.60;53.09;100821.81;4160738;28;20037;-62
2022/05/15 02:22:06;;;;;;;9.73;3.92;;;;;;;16.58;53.23;100819.22;4157526;28;20034;-63
2022/05/15 02:24:09;;;;;;;6.95;3.55;;;;;;;16.55;53.25;100818.38;4161577;28;20047;-63
2022/05/15 02:26:13;;;;;;;8.98;3.63;;;;;;;16.43;52.96;100824.56;4160799;28;20057;-62
2022/05/15 02:28:17;;;;;;;9.98;4.32;;;;;;;16.40;53.74;100821.94;4142489;28;20046;-62
2022/05/15 02:30:20;;;;;;;8.63;3.97;;;;;;;16.34;52.73;100824.56;4146887;28;20119;-62
2022/05/15 02:32:23;;;;;;;8.65;3.97;;;;;;;16.38;52.92;100821.94;4161540;28;20061;-62
2022/05/15 02:34:26;;;;;;;11.45;3.90;;;;;;;16.40;53.07;100830.69;4173172;28;20041;-62
2022/05/15 02:36:30;;;;;;;11.40;3.95;;;;;;;16.40;53.11;100820.19;4171809;28;20868;-62
2022/05/15 02:38:33;;;;;;;8.68;3.78;;;;;;;16.43;52.66;100810.53;4160809;28;20046;-62
2022/05/15 02:40:36;;;;;;;7.30;3.55;;;;;;;16.42;53.15;100816.69;4159295;28;20033;-62
2022/05/15 02:42:39;;;;;;;10.23;4.60;;;;;;;16.44;52.41;100813.19;4162235;28;20038;-62
2022/05/15 02:44:43;;;;;;;14.00;4.85;;;;;;;16.45;52.14;100812.28;4157528;28;20476;-62
2022/05/15 02:46:46;;;;;;;13.80;4.78;;;;;;;16.43;52.37;100813.16;4146432;28;20132;-62
2022/05/15 02:51:11;;;;;;;9.90;4.15;;;;;;;16.42;52.56;100806.19;4157455;28;20044;-62
2022/05/15 02:53:13;;;;;;;9.65;4.72;;;;;;;16.44;52.13;100818.44;4158526;28;20030;-62
2022/05/15 02:55:16;;;;;;;8.45;3.97;;;;;;;16.45;52.68;100820.16;4161877;28;20473;-62
2022/05/15 02:57:19;;;;;;;8.52;3.60;;;;;;;16.44;52.60;100815.81;4161256;28;20125;-62
2022/05/15 02:59:22;;;;;;;9.45;4.40;;;;;;;16.45;52.51;100819.28;4162872;28;20140;-62
2022/05/15 03:01:26;;;;;;;10.65;4.30;;;;;;;16.49;52.82;100819.28;4160293;28;20044;-62
2022/05/15 03:03:29;;;;;;;7.03;4.47;;;;;;;16.50;52.57;100818.41;4161361;28;20041;-62
2022/05/15 03:05:32;;;;;;;11.60;4.65;;;;;;;16.59;52.16;100814.84;4160729;28;20551;-62
2022/05/15 03:07:37;;;;;;;9.60;4.32;;;;;;;16.52;52.55;100811.38;4159606;28;20075;-62
2022/05/15 03:09:40;;;;;;;8.52;4.40;;;;;;;16.52;52.44;100813.13;4162936;28;20056;-63
2022/05/15 03:11:43;;;;;;;8.88;4.18;;;;;;;16.50;53.03;100814.88;4167028;28;20045;-62
2022/05/15 03:13:47;;;;;;;9.43;3.87;;;;;;;16.48;52.83;100811.41;4158492;28;20037;-62
2022/05/15 03:15:50;;;;;;;8.88;3.83;;;;;;;16.47;53.10;100812.28;4155302;28;20323;-62
2022/05/15 03:17:54;;;;;;;8.75;4.40;;;;;;;16.48;54.47;100816.66;4162361;28;20065;-62
2022/05/15 03:19:57;;;;;;;9.60;3.70;;;;;;;16.45;54.74;100817.53;4162700;28;20034;-62
2022/05/15 03:22:00;;;;;;;10.50;3.95;;;;;;;16.45;54.63;100814.91;4157681;28;20040;-62
2022/05/15 03:24:05;;;;;;;11.18;4.60;;;;;;;16.44;54.01;100814.91;4158486;28;20047;-62
2022/05/15 03:26:08;;;;;;;10.30;4.40;;;;;;;16.43;53.52;100816.69;4161824;28;20480;-62
2022/05/15 03:28:11;;;;;;;5.43;3.28;;;;;;;16.43;54.59;100810.53;4161687;28;20542;-62
2022/05/15 03:30:15;;;;;;;6.35;3.33;;;;;;;16.45;54.79;100819.28;4177832;28;20041;-62
2022/05/15 03:32:19;;;;;;;7.82;3.67;;;;;;;16.44;54.91;100825.41;4157170;28;20060;-62
2022/05/15 03:34:24;;;;;;;6.75;3.45;;;;;;;16.42;55.30;100821.94;4160067;28;20065;-62
2022/05/15 03:36:26;;;;;;;12.48;4.10;;;;;;;16.37;55.51;100827.22;4160785;28;20034;-62
2022/05/15 03:38:29;;;;;;;10.68;4.47;;;;;;;16.33;54.83;100825.47;4172546;28;20040;-62
2022/05/15 03:40:32;;;;;;;8.07;4.60;;;;;;;16.30;54.94;100828.97;4161220;28;20045;-62
2022/05/15 03:42:35;;;;;;;10.45;4.30;;;;;;;16.29;55.40;100826.34;4159485;28;20084;-62
2022/05/15 03:44:38;;;;;;;8.30;3.92;;;;;;;16.25;55.39;100830.72;4158113;28;20053;-62
2022/05/15 03:46:43;;;;;;;7.35;3.58;;;;;;;16.21;54.82;100829.00;4162741;28;20095;-62
2022/05/15 03:48:46;;;;;;;7.57;3.75;;;;;;;16.16;55.29;100821.13;4161125;28;20041;-62
2022/05/15 03:50:50;;;;;;;7.20;3.53;;;;;;;16.17;55.23;100832.50;4163582;28;20041;-63
2022/05/15 03:52:53;;;;;;;;;;;;;;;15.95;55.89;100832.56;4149297;28;20038;-62
2022/05/15 03:54:56;;;;;;;8.05;3.72;;;;;;;15.98;55.68;100835.16;4161923;28;19931;-62
2022/05/15 03:56:59;;;;;;;10.13;4.10;;;;;;;15.98;55.66;100832.53;4142242;28;20583;-62
2022/05/15 03:59:02;;;;;;;11.05;4.68;;;;;;;15.93;56.16;100831.69;4164826;28;20087;-62
2022/05/15 04:01:06;;;;;;;11.07;4.57;;;;;;;15.92;55.58;100842.19;4162125;28;20483;-62
2022/05/15 04:03:10;;;;;;;7.38;4.63;;;;;;;15.87;56.70;100848.31;4163088;28;20525;-62
2022/05/15 04:05:13;;;;;;;8.85;4.38;;;;;;;15.84;55.54;100844.81;4165127;28;20049;-62
2022/05/15 04:07:17;;;;;;;10.90;4.95;;;;;;;15.79;56.02;100852.69;4162272;28;20037;-61
2022/05/15 04:09:21;;;;;;;6.50;3.53;;;;;;;15.79;56.16;100846.56;4181370;28;20511;-62
2022/05/15 04:11:24;;;;;;;12.48;5.22;;;;;;;15.78;56.93;100857.91;4172513;28;20495;-62
2022/05/15 04:13:27;;;;;;;12.13;5.35;;;;;;;15.77;56.52;100853.50;4173020;28;20025;-62
2022/05/15 04:15:31;;;;;;;8.40;3.85;;;;;;;15.76;57.47;100855.28;4180104;28;20041;-62
2022/05/15 04:17:34;;;;;;;9.57;4.47;;;;;;;15.71;57.64;100852.66;4162117;28;20038;-61
2022/05/15 04:19:38;;;;;;;8.65;4.70;;;;;;;15.71;56.85;100846.53;4161476;28;20141;-62
2022/05/15 04:21:47;;;;;;;10.05;5.05;;;;;;;15.71;56.85;100842.19;4163181;28;20033;-62
2022/05/15 04:23:52;;;;;;;14.23;5.88;;;;;;;15.76;56.77;100836.94;4154993;28;20034;-62
2022/05/15 04:25:55;;;;;;;9.90;4.65;;;;;;;15.80;56.11;100843.06;4161427;28;20030;-62
2022/05/15 04:27:58;;;;;;;9.55;4.20;;;;;;;15.88;56.45;100836.06;4176378;28;20146;-62
2022/05/15 04:30:01;;;;;;;10.98;5.25;;;;;;;15.92;57.63;100845.69;4164021;28;20503;-62
2022/05/15 04:32:05;;;;;;;11.85;4.93;;;;;;;15.98;56.88;100843.03;4158456;28;20069;-62
2022/05/15 04:34:08;;;;;;;11.88;5.28;;;;;;;15.97;57.55;100830.78;4162225;28;20073;-62
2022/05/15 04:36:11;;;;;;;11.80;5.28;;;;;;;16.00;56.83;100840.41;4158495;28;20045;-62
2022/05/15 04:38:13;;;;;;;14.07;5.32;;;;;;;16.02;56.19;100839.53;4157856;28;20124;-62
2022/05/15 04:40:19;;;;;;;14.98;5.68;;;;;;;16.07;56.00;100836.03;4161008;28;20055;-62
2022/05/15 04:42:22;;;;;;;16.65;4.55;;;;;;;16.05;56.52;100842.16;4157627;28;20044;-62
2022/05/15 04:44:25;;;;;;;8.13;4.55;;;;;;;16.10;57.04;100842.13;4159085;28;20810;-62
2022/05/15 04:46:29;;;;;;;11.20;4.93;;;;;;;16.14;56.76;100848.25;4158926;28;20453;-62
2022/05/15 04:48:32;;;;;;;11.48;4.88;;;;;;;16.13;57.37;100847.38;4157916;28;20526;-62
2022/05/15 04:50:37;;;;;;;11.40;4.65;;;;;;;16.16;57.20;100851.75;4160116;28;20068;-62
2022/05/15 04:52:40;;;;;;;7.00;4.20;;;;;;;16.19;57.81;100849.09;4161194;28;20033;-62
2022/05/15 04:54:42;;;;;;;7.75;4.30;;;;;;;16.22;57.37;100846.47;4159031;28;20398;-62
2022/05/15 04:56:47;;;;;;;10.30;4.32;;;;;;;16.23;57.20;100842.97;4162752;28;20406;-62
2022/05/15 04:58:50;;;;;;;9.63;4.53;;;;;;;16.25;57.76;100846.47;4164681;28;20034;-63
2022/05/15 05:00:53;;;;;;;7.25;4.35;;;;;;;16.27;57.63;100844.72;4161150;28;20080;-62
2022/05/15 05:02:56;;;;;;;8.90;4.80;;;;;;;16.29;56.93;100848.19;4159853;28;20053;-62
2022/05/15 05:04:59;;;;;;;12.93;5.47;;;;;;;16.33;56.82;100833.34;4163974;28;20037;-62
2022/05/15 05:07:03;;;;;;;13.82;5.28;;;;;;;16.36;57.11;100835.94;4163667;28;20046;-62
2022/05/15 05:09:05;;;;;;;7.03;4.40;;;;;;;16.40;56.34;100841.16;4161700;28;20037;-62
2022/05/15 05:11:08;;;;;;;16.88;4.43;;;;;;;16.45;56.78;100842.91;4161166;28;20038;-62
2022/05/15 05:13:13;;;;;;;10.13;4.63;;;;;;;16.41;56.72;100847.28;4158653;28;20043;-62
2022/05/15 05:15:16;;;;;;;;;;;;;;;16.28;57.59;100850.84;4164675;28;20507;-62
2022/05/15 05:17:18;;;;;;;11.18;5.38;;;;;;;16.39;56.51;100843.81;4154942;28;19921;-62
2022/05/15 05:19:21;;;;;;;11.30;5.88;;;;;;;16.50;55.37;100852.50;4151802;28;20052;-62
2022/05/15 05:21:24;;;;;;;11.27;5.82;;;;;;;16.56;55.16;100843.75;4162401;28;20045;-62
2022/05/15 05:23:27;;;;;;;9.70;5.45;;;;;;;16.61;55.68;100860.34;4156398;28;20037;-62
2022/05/15 05:25:30;;;;;;;11.02;5.22;;;;;;;16.66;55.46;100858.56;4160466;28;20473;-62
2022/05/15 05:27:34;;;;;;;9.80;4.55;;;;;;;16.70;55.87;100868.16;4159813;28;20055;-62
2022/05/15 05:29:38;;;;;;;15.13;5.65;;;;;;;16.75;55.97;100869.03;4159634;28;20124;-62
2022/05/15 05:31:41;;;;;;;10.88;5.05;;;;;;;16.78;55.66;100870.78;4159232;28;20411;-62
2022/05/15 05:33:44;;;;;;;13.60;5.45;;;;;;;16.82;56.38;100876.88;4161945;28;20464;-62
2022/05/15 05:35:47;;;;;;;9.30;4.85;;;;;;;16.86;56.29;100868.09;4159367;28;20426;-62
2022/05/15 05:37:51;;;;;;;14.63;5.88;;;;;;;16.99;54.82;100872.44;4156131;28;20418;-62
2022/05/15 05:39:54;;;;;;;12.45;6.10;;;;;;;17.06;54.29;100873.28;4163638;28;20068;-62
2022/05/15 05:41:57;;;;;;;13.77;5.55;;;;;;;17.05;53.89;100872.38;4162265;28;20480;-62
2022/05/15 05:44:00;;;;;;;12.23;5.15;;;;;;;17.15;53.19;100867.09;4156524;28;20533;-62
2022/05/15 05:46:04;;;;;;;7.07;4.18;;;;;;;17.12;53.32;100875.00;4161887;28;20045;-62
2022/05/15 05:48:08;;;;;;;12.38;5.35;;;;;;;17.18;53.30;100875.81;4156518;28;20045;-62
2022/05/15 05:50:11;;;;;;;11.82;5.50;;;;;;;17.20;53.28;100878.44;4156355;28;20046;-62
2022/05/15 05:52:14;;;;;;;10.98;5.82;;;;;;;17.23;53.32;100873.16;4162729;28;20045;-62
2022/05/15 05:54:16;;;;;;;10.25;5.03;;;;;;;17.27;53.72;100878.41;4162410;28;20038;-62
2022/05/15 05:56:19;;;;;;;12.50;6.25;;;;;;;17.37;53.02;100868.69;4156570;28;20048;-62
2022/05/15 05:58:24;;;;;;;11.18;5.25;;;;;;;17.43;52.68;100866.03;4161782;28;20052;-62
2022/05/15 06:00:29;;;;;;;9.82;5.03;;;;;;;17.48;52.48;100871.25;4161521;28;20041;-62
2022/05/15 06:02:35;;;;;;;9.05;5.15;;;;;;;17.48;52.31;100878.25;4162922;28;20052;-62
2022/05/15 06:04:40;;;;;;;13.00;6.03;;;;;;;17.51;51.63;100871.22;4152964;28;20042;-62
2022/05/15 06:06:43;;;;;;;16.13;6.13;;;;;;;17.45;51.91;100868.66;4145092;28;20045;-62
2022/05/15 06:08:46;;;;;;;15.98;6.60;;;;;;;17.50;51.95;100871.22;4152440;28;20041;-62
2022/05/15 06:10:49;;;;;;;11.80;6.30;;;;;;;17.44;51.55;100864.25;4162894;28;20033;-62
2022/05/15 06:12:53;;;;;;;11.35;6.30;;;;;;;17.48;51.85;100865.09;4145973;28;20523;-62
2022/05/15 06:14:56;;;;;;;11.77;5.53;;;;;;;17.54;51.24;100870.31;4161028;28;20138;-62
2022/05/15 06:16:59;;;;;;;11.90;5.72;;;;;;;17.50;51.58;100868.59;4162206;28;20128;-62
2022/05/15 06:19:03;;;;;;;10.07;5.10;;;;;;;17.48;51.77;100868.63;4156971;28;20101;-70
2022/05/15 06:21:06;;;;;;;7.90;4.65;;;;;;;17.53;51.11;100868.56;4155006;28;20037;-64
2022/05/15 06:23:09;;;;;;;11.80;5.75;;;;;;;17.56;51.58;100866.78;4163986;28;20046;-72
2022/05/15 06:25:12;;;;;;;10.07;5.25;;;;;;;17.66;51.44;100867.59;4158900;28;20052;-65
2022/05/15 06:27:15;;;;;;;13.30;5.45;;;;;;;17.67;51.50;100866.72;4150711;28;20046;-63
2022/05/15 06:29:18;;;;;;;9.45;4.57;;;;;;;17.74;51.32;100865.78;4158405;28;20045;-62
2022/05/15 06:31:21;;;;;;;15.38;5.32;;;;;;;17.79;51.23;100868.34;4153870;28;20571;-62
2022/05/15 06:33:24;;;;;;;11.18;5.78;;;;;;;17.96;51.15;100870.88;4160835;28;20125;-62
2022/05/15 06:35:28;;;;;;;11.07;4.70;;;;;;;18.02;50.57;100867.28;4154733;28;20050;-62
2022/05/15 06:37:31;;;;;;;9.90;5.25;;;;;;;18.09;50.64;100866.31;4162032;28;20048;-62
2022/05/15 06:39:34;;;;;;;11.80;5.38;;;;;;;18.26;49.69;100858.25;4157639;28;20152;-63
2022/05/15 06:41:37;;;;;;;10.02;4.50;;;;;;;18.25;50.12;100867.03;4153514;28;20042;-63
2022/05/15 06:43:40;;;;;;;15.00;4.40;;;;;;;18.38;49.25;100860.75;4162104;28;20033;-62
2022/05/15 06:45:43;;;;;;;15.77;3.42;;;;;;;18.40;49.31;100863.34;4161776;28;20091;-62
2022/05/15 06:47:46;;;;;;;9.07;4.30;;;;;;;18.48;48.99;100862.38;4162108;28;20040;-63
2022/05/15 06:49:49;;;;;;;16.95;5.15;;;;;;;18.57;48.86;100860.53;4158182;28;20140;-63
2022/05/15 06:51:53;;;;;;;9.32;3.60;;;;;;;18.63;48.42;100855.19;4161163;28;20071;-62
2022/05/15 06:53:55;;;;;;;9.52;3.90;;;;;;;18.58;49.00;100855.25;4155690;28;20036;-62
2022/05/15 06:58:19;;;;;;;11.23;4.15;;;;;;;18.75;48.90;100857.66;4148078;28;20466;-62
2022/05/15 07:00:25;;;;;;;10.60;4.80;;;;;;;18.99;48.11;100858.25;4146379;28;20042;-62
2022/05/15 07:02:30;;;;;;;9.80;4.53;;;;;;;18.97;47.58;100865.31;4146943;28;20045;-62
2022/05/15 07:04:33;;;;;;;10.70;4.13;;;;;;;18.93;48.02;100858.34;4160572;28;20037;-62
2022/05/15 07:06:36;;;;;;;8.45;4.15;;;;;;;19.06;47.42;100866.94;4160065;28;20047;-62
2022/05/15 07:08:40;;;;;;;9.65;4.50;;;;;;;19.23;46.48;100866.69;4163584;28;20099;-62
2022/05/15 07:10:43;;;;;;;8.27;3.88;;;;;;;19.22;46.19;100864.97;4162599;28;20084;-62
2022/05/15 07:12:46;;;;;;;12.52;3.50;;;;;;;19.25;46.66;100870.19;4179466;28;20064;-62
2022/05/15 07:14:49;;;;;;;8.73;3.72;;;;;;;19.30;46.36;100871.88;4164249;28;20039;-62
2022/05/15 07:16:52;;;;;;;7.40;3.90;;;;;;;19.23;46.16;100872.84;4163483;28;20064;-62
2022/05/15 07:18:55;;;;;;;8.95;3.40;;;;;;;19.17;46.75;100863.25;4153077;28;20065;-62
2022/05/15 07:20:58;;;;;;;8.18;3.17;;;;;;;19.18;47.29;100864.97;4160701;28;20052;-62
2022/05/15 07:23:01;;;;;;;6.40;3.60;;;;;;;19.33;46.00;100863.91;4150504;28;20042;-62
2022/05/15 07:25:06;;;;;;;8.82;3.53;;;;;;;19.38;45.97;100860.28;4157124;28;20679;-61
2022/05/15 07:27:10;;;;;;;9.02;3.50;;;;;;;19.43;45.94;100863.75;4161062;28;20034;-62
2022/05/15 07:29:14;;;;;;;10.90;3.38;;;;;;;19.53;44.69;100858.28;4159837;28;20120;-62
2022/05/15 07:31:18;;;;;;;10.05;4.07;;;;;;;19.66;44.74;100860.72;4153106;28;20420;-62
2022/05/15 07:33:22;;;;;;;3.97;2.58;;;;;;;19.63;44.80;100858.16;4154900;28;20260;-62
2022/05/15 07:35:25;;;;;;;6.57;3.00;;;;;;;19.69;44.86;100863.31;4161758;28;20046;-62
2022/05/15 07:37:29;;;;;;;8.43;3.47;;;;;;;19.78;44.52;100855.25;4160889;28;20113;-62
2022/05/15 07:39:32;;;;;;;8.80;3.65;;;;;;;19.88;44.21;100862.13;4153890;28;20487;-62
2022/05/15 07:41:36;;;;;;;8.85;3.95;;;;;;;19.99;44.05;100868.97;4154633;28;20166;-62
2022/05/15 07:43:40;;;;;;;9.88;3.83;;;;;;;19.99;44.15;100868.97;4162009;28;20449;-62
2022/05/15 07:45:43;;;;;;;8.37;3.97;;;;;;;20.00;44.29;100868.06;4159214;28;20068;-62
2022/05/15 07:47:46;;;;;;;11.45;4.70;;;;;;;19.97;44.23;100866.34;4163578;28;20036;-62
2022/05/15 07:49:49;;;;;;;12.77;3.92;;;;;;;20.00;44.43;100860.16;4153138;28;20048;-63
2022/05/15 07:51:52;;;;;;;7.35;3.97;;;;;;;20.11;43.66;100862.63;4159765;28;20037;-62
2022/05/15 07:53:55;;;;;;;15.20;4.30;;;;;;;20.16;44.48;100860.75;4157389;28;20095;-62
2022/05/15 07:56:03;;;;;;;11.70;4.13;;;;;;;20.23;43.88;100865.00;4144330;28;20050;-62
2022/05/15 07:58:07;;;;;;;7.30;3.08;;;;;;;20.20;43.65;100865.94;4162541;28;20044;-62
2022/05/15 08:00:14;;;;;;;7.65;3.28;;;;;;;20.15;43.80;100859.88;4157517;28;20120;-62
2022/05/15 08:02:18;;;;;;;9.40;3.28;;;;;;;20.28;44.17;100857.00;4154416;28;20076;-62
2022/05/15 08:04:21;;;;;;;8.50;3.53;;;;;;;20.50;42.71;100857.44;4154896;28;20041;-62
2022/05/15 08:08:44;;;;;;;6.32;2.40;;;;;;;20.48;43.15;100854.81;4159615;28;20038;-62
2022/05/15 08:10:47;;;;;;;6.60;2.58;;;;;;;20.46;42.70;100856.63;4159413;28;20052;-62
2022/05/15 08:12:50;;;;;;;5.95;2.40;;;;;;;20.48;42.79;100857.47;4153407;28;20065;-62
2022/05/15 08:14:54;;;;;;;10.93;3.33;;;;;;;20.75;41.11;100847.25;4162202;28;20038;-62
2022/05/15 08:16:57;;;;;;;9.75;2.80;;;;;;;20.76;41.57;100851.63;4149858;28;20040;-63
2022/05/15 08:23:45;;;;;;;7.25;3.30;;;;;;;21.07;40.71;100840.34;4155532;28;20555;-63
2022/05/15 08:25:49;;;;;;;6.43;2.50;;;;;;;20.97;41.34;100839.72;4160295;28;20045;-63
2022/05/15 08:27:52;;;;;;;6.82;2.78;;;;;;;21.12;41.20;100840.28;4152460;28;20041;-63
2022/05/15 08:29:56;;;;;;;6.20;2.80;;;;;;;21.19;41.15;100841.88;4164461;28;20080;-63
2022/05/15 08:31:59;;;;;;;8.27;3.08;;;;;;;21.25;41.64;100839.94;4166596;28;20048;-63
2022/05/15 08:34:02;;;;;;;7.65;3.20;;;;;;;21.38;41.64;100839.66;4166564;28;20045;-63
2022/05/15 08:36:06;;;;;;;9.45;3.38;;;;;;;21.58;41.95;100836.50;4163110;28;20430;-63
2022/05/15 08:38:09;;;;;;;;;;;;;;;21.55;41.81;100831.31;4160250;28;20064;-62
2022/05/15 08:40:13;;;;;;;6.85;2.75;;;;;;;21.56;41.31;100833.91;4147905;28;19927;-62
2022/05/15 08:42:37;;;;;;;5.82;2.60;;;;;;;21.73;40.99;100827.34;4164295;28;20037;-62
2022/05/15 08:44:43;;;;;;;5.55;2.88;;;;;;;21.78;41.09;100828.06;4160771;28;20125;-66
2022/05/15 08:47:03;;;;;;;6.32;3.10;;;;;;;21.99;40.04;100823.09;4161984;28;20037;-66
2022/05/15 08:49:11;;;;;;;11.35;3.38;;;;;;;22.03;40.51;100825.59;4166146;28;20087;-60
2022/05/15 08:51:14;;;;;;;6.93;2.50;;;;;;;21.99;40.46;100825.75;4156593;28;20040;-67
2022/05/15 08:53:23;;;;;;;8.98;2.97;;;;;;;22.02;40.93;100828.31;4164936;28;20048;-65
2022/05/15 08:55:35;;;;;;;5.63;2.70;;;;;;;22.12;41.15;100827.13;4162304;28;20034;-63
2022/05/15 08:57:44;;;;;;;10.98;2.67;;;;;;;22.22;41.24;100825.09;4156942;28;20048;-64
2022/05/15 08:59:55;;;;;;;6.85;2.78;;;;;;;22.35;42.02;100830.97;4164595;28;20045;-69
2022/05/15 09:02:01;;;;;;;11.55;2.88;;;;;;;22.47;42.91;100830.59;4160801;28;20033;-65
2022/05/15 09:04:04;;;;;;;7.55;2.65;;;;;;;22.61;40.11;100824.91;4159622;28;20133;-62
2022/05/15 09:06:16;;;;;;;6.90;2.57;;;;;;;22.58;39.97;100820.53;4157433;28;20049;-65
2022/05/15 09:08:47;;;;;;;9.68;2.40;;;;;;;22.63;40.77;100823.06;4165266;28;20128;-63
2022/05/15 09:10:58;;;;;;;7.07;2.42;;;;;;;22.77;40.42;100830.59;4157074;28;20042;-63
2022/05/15 09:13:09;;;;;;;8.25;2.70;;;;;;;22.82;39.46;100824.25;4161197;28;20128;-69
2022/05/15 09:15:18;;;;;;;5.03;1.90;;;;;;;22.91;38.99;100822.19;4160993;28;20555;-64
2022/05/15 09:17:32;;;;;;;6.10;2.40;;;;;;;23.05;39.50;100825.28;4156194;28;20046;-69
2022/05/15 09:19:37;;;;;;;7.93;2.92;;;;;;;23.22;38.05;100822.13;4162432;28;20048;-60
2022/05/15 09:21:40;;;;;;;6.82;2.25;;;;;;;23.26;38.00;100823.78;4155182;28;20116;-69
2022/05/15 09:23:48;;;;;;;6.10;2.38;;;;;;;23.30;37.47;100817.44;4156667;28;20038;-68
2022/05/15 09:25:56;;;;;;;7.53;2.60;;;;;;;23.39;37.87;100820.69;4164680;28;20033;-69
2022/05/15 09:28:02;;;;;;;6.13;2.70;;;;;;;23.55;36.63;100819.25;4160288;28;20041;-68
2022/05/15 09:30:10;;;;;;;3.58;2.20;;;;;;;23.49;36.93;100814.16;4163018;28;20048;-73
2022/05/15 09:32:28;;;;;;;6.20;2.25;;;;;;;23.54;36.83;100817.53;4156534;28;20042;-70
2022/05/15 09:34:35;;;;;;;6.45;2.05;;;;;;;23.70;36.78;100812.56;4164649;28;20065;-71
2022/05/15 09:36:43;;;;;;;5.03;1.77;;;;;;;23.60;37.13;100811.16;4152546;28;20038;-70
2022/05/15 09:38:45;;;;;;;5.07;1.90;;;;;;;23.58;37.05;100807.69;4159847;28;20107;-70
2022/05/15 09:43:32;;;;;;;7.55;2.30;;;;;;;23.94;37.18;100802.88;4172706;28;20122;-73
2022/05/15 09:45:36;;;;;;;7.10;2.47;;;;;;;24.15;36.60;100803.91;4153883;28;20404;-73
2022/05/15 09:47:43;;;;;;;5.38;2.30;;;;;;;24.19;35.14;100794.88;4154495;28;20115;-70
2022/05/15 09:49:46;;;;;;;7.22;2.30;;;;;;;24.19;35.47;100794.88;4165041;28;20091;-74
2022/05/15 09:51:52;;;;;;;5.82;2.13;;;;;;;24.18;36.12;100797.59;4161256;28;20033;-73